createdAt,value
2023-03-26T04:03:33.171Z,98685.22
2023-03-26T04:07:39.147Z,98678.81
2023-03-26T04:11:41.680Z,98686.66
2023-03-26T04:16:10.683Z,98681.91
2023-03-26T04:20:15.593Z,98682.72
2023-03-26T04:24:22.344Z,98679.22
2023-03-26T04:29:02.576Z,98678.38
2023-03-26T04:33:07.211Z,98666.63
2023-03-26T04:37:22.488Z,98657.09
2023-03-26T04:41:36.023Z,98665.16
2023-03-26T04:45:41.816Z,98665.78
2023-03-26T04:49:44.446Z,98658.13
2023-03-26T04:53:53.826Z,98655.44
2023-03-26T04:58:05.988Z,98653.56
2023-03-26T05:02:26.073Z,98662.03
2023-03-26T05:06:34.235Z,98653.97
2023-03-26T05:10:42.362Z,98653.09
2023-03-26T05:14:49.690Z,98647.53
2023-03-26T05:18:58.867Z,98642.75
2023-03-26T05:23:07.340Z,98640.53
2023-03-26T05:27:16.943Z,98626.84
2023-03-26T05:31:21.144Z,98626.28
2023-03-26T05:35:25.551Z,98627.50
2023-03-26T05:39:29.812Z,98621.94
2023-03-26T05:43:53.654Z,98607.41
2023-03-26T05:48:01.450Z,98602.28
2023-03-26T05:52:04.248Z,98607.13
2023-03-26T05:56:25.284Z,98607.69
2023-03-26T06:00:48.520Z,98600.63
2023-03-26T06:04:57.478Z,98603.69
2023-03-26T06:09:11.990Z,98599.31
2023-03-26T06:13:16.138Z,98598.00
2023-03-26T06:17:20.548Z,98588.31
2023-03-26T06:21:45.785Z,98584.97
2023-03-26T06:25:54.239Z,98583.06
2023-03-26T06:30:08.020Z,98567.19
2023-03-26T06:34:17.142Z,98582.78
2023-03-26T06:38:19.900Z,98579.84
2023-03-26T06:42:22.597Z,98572.56
2023-03-26T06:47:03.783Z,98568.53
2023-03-26T06:51:27.599Z,98574.16
2023-03-26T06:55:53.937Z,98582.13
2023-03-26T07:00:16.162Z,98581.28
2023-03-26T07:04:37.253Z,98577.78
2023-03-26T07:08:59.804Z,98565.66
2023-03-26T07:13:37.750Z,98567.16
2023-03-26T07:18:18.167Z,98562.09
2023-03-26T07:22:23.398Z,98559.31
2023-03-26T07:27:00.240Z,98559.56
2023-03-26T07:31:27.195Z,98557.22
2023-03-26T07:35:54.678Z,98560.88
2023-03-26T07:40:18.606Z,98548.47
2023-03-26T07:44:53.516Z,98542.34
2023-03-26T07:49:12.998Z,98540.78
2023-03-26T07:53:34.725Z,98543.66
2023-03-26T07:58:12.554Z,98539.50
2023-03-26T08:02:47.538Z,98523.84
2023-03-26T08:07:18.916Z,98517.44
2023-03-26T08:11:54.204Z,98520.13
2023-03-26T08:16:06.556Z,98513.28
2023-03-26T08:20:21.083Z,98513.88
2023-03-26T08:24:33.023Z,98516.06
2023-03-26T08:28:48.534Z,98516.63
2023-03-26T08:32:56.562Z,98518.25
2023-03-26T08:37:01.498Z,98517.16
2023-03-26T08:41:33.116Z,98519.88
2023-03-26T08:46:19.711Z,98514.38
2023-03-26T08:50:47.603Z,98516.16
2023-03-26T08:55:28.361Z,98505.78
2023-03-26T08:59:56.766Z,98506.91
2023-03-26T09:04:36.754Z,98500.63
2023-03-26T09:09:19.958Z,98499.19
2023-03-26T09:13:53.726Z,98498.28
2023-03-26T09:18:30.800Z,98494.41
2023-03-26T09:22:51.281Z,98477.47
2023-03-26T09:27:01.500Z,98468.78
2023-03-26T09:31:36.330Z,98464.56
2023-03-26T09:36:01.266Z,98461.91
2023-03-26T09:40:17.414Z,98460.97
2023-03-26T09:44:40.024Z,98460.97
2023-03-26T09:49:07.035Z,98449.00
2023-03-26T09:53:37.271Z,98447.19
2023-03-26T09:58:00.237Z,98447.34
2023-03-26T10:02:18.036Z,98448.63
2023-03-26T10:06:37.525Z,98440.88
2023-03-26T10:10:48.935Z,98435.22
2023-03-26T10:15:02.745Z,98436.75
2023-03-26T10:19:22.048Z,98429.00
2023-03-26T10:23:48.192Z,98421.34
2023-03-26T10:28:01.324Z,98419.84
2023-03-26T10:32:18.638Z,98420.72
2023-03-26T10:36:30.785Z,98408.22
2023-03-26T10:40:43.713Z,98421.34
2023-03-26T10:45:14.118Z,98419.63
2023-03-26T10:49:52.210Z,98415.88
2023-03-26T10:53:57.937Z,98418.81
2023-03-26T10:58:14.219Z,98410.97
2023-03-26T11:02:30.397Z,98410.63
2023-03-26T11:06:41.720Z,98399.91
2023-03-26T11:10:51.972Z,98399.94
2023-03-26T11:15:03.305Z,98392.88
2023-03-26T11:19:13.813Z,98398.53
2023-03-26T11:23:27.468Z,98394.63
2023-03-26T11:27:42.994Z,98396.22
2023-03-26T11:31:57.821Z,98389.75
2023-03-26T11:36:06.911Z,98392.38
2023-03-26T11:40:15.516Z,98390.19
2023-03-26T11:44:22.555Z,98396.66
2023-03-26T11:48:31.904Z,98382.41
2023-03-26T11:52:34.536Z,98399.28
2023-03-26T11:57:05.435Z,98402.97
2023-03-26T12:01:15.300Z,98412.25
2023-03-26T12:05:22.054Z,98408.66
2023-03-26T12:09:25.757Z,98407.28
2023-03-26T12:13:36.530Z,98408.56
2023-03-26T12:17:42.021Z,98407.03
2023-03-26T12:21:49.563Z,98397.91
2023-03-26T12:26:11.980Z,98395.91
2023-03-26T12:30:23.039Z,98394.34
2023-03-26T12:34:34.819Z,98397.16
2023-03-26T12:38:40.652Z,98400.19
2023-03-26T12:44:48.737Z,98394.34
2023-03-26T12:47:58.828Z,98400.69
2023-03-26T12:51:44.760Z,98407.25
2023-03-26T12:56:01.260Z,98408.06
2023-03-26T13:00:21.343Z,98402.38
2023-03-26T13:05:02.207Z,98397.78
2023-03-26T13:09:25.369Z,98387.09
2023-03-26T13:13:47.560Z,98391.09
2023-03-26T13:18:04.204Z,98388.97
2023-03-26T13:22:19.877Z,98384.16
2023-03-26T13:26:37.456Z,98385.47
2023-03-26T13:30:48.147Z,98386.97
2023-03-26T13:35:07.434Z,98370.06
2023-03-26T13:39:28.583Z,98373.28
2023-03-26T13:43:38.987Z,98367.38
2023-03-26T13:47:47.955Z,98364.97
2023-03-26T13:51:57.179Z,98360.94
2023-03-26T13:56:01.145Z,98363.44
2023-03-26T14:00:07.193Z,98361.53
2023-03-26T14:04:22.759Z,98357.81
2023-03-26T14:08:32.825Z,98357.84
2023-03-26T14:12:49.047Z,98354.84
2023-03-26T14:16:59.910Z,98355.38
2023-03-26T14:21:19.043Z,98357.56
2023-03-26T14:25:33.774Z,98354.84
2023-03-26T14:29:56.227Z,98360.34
2023-03-26T14:34:13.764Z,98355.88
2023-03-26T14:38:44.919Z,98354.00
2023-03-26T14:42:56.492Z,98354.84
2023-03-26T14:47:14.472Z,98351.22
2023-03-26T14:51:34.575Z,98347.09
2023-03-26T14:56:13.184Z,98350.25
2023-03-26T15:00:38.215Z,98352.28
2023-03-26T15:04:48.076Z,98344.66
2023-03-26T15:09:31.231Z,98342.03
2023-03-26T15:14:01.074Z,98334.16
2023-03-26T15:18:58.209Z,98341.16
2023-03-26T15:23:33.471Z,98339.25
2023-03-26T15:27:53.931Z,98337.66
2023-03-26T15:32:25.738Z,98335.09
2023-03-26T15:36:50.845Z,98340.19
2023-03-26T15:41:05.087Z,98347.25
2023-03-26T15:45:27.495Z,98340.88
2023-03-26T15:49:41.854Z,98335.16
2023-03-26T15:53:50.887Z,98344.53
2023-03-26T15:58:01.443Z,98338.28
2023-03-26T16:02:17.529Z,98339.25
2023-03-26T16:06:30.974Z,98333.25
2023-03-26T16:10:40.722Z,98345.81
2023-03-26T16:14:47.229Z,98344.59
2023-03-26T16:18:56.422Z,98348.34
2023-03-26T16:23:03.511Z,98349.69
2023-03-26T16:27:23.338Z,98349.13
2023-03-26T16:31:36.846Z,98354.47
2023-03-26T16:36:07.138Z,98360.44
2023-03-26T16:40:34.153Z,98345.75
2023-03-26T16:44:45.306Z,98351.00
2023-03-26T16:48:56.787Z,98354.72
2023-03-26T16:53:09.468Z,98355.72
2023-03-26T16:57:24.800Z,98350.94
2023-03-26T17:01:41.403Z,98362.63
2023-03-26T17:05:59.037Z,98360.13
2023-03-26T17:10:14.157Z,98366.94
2023-03-26T17:14:32.261Z,98370.00
2023-03-26T17:18:44.151Z,98375.91
2023-03-26T17:22:52.492Z,98379.88
2023-03-26T17:27:11.576Z,98392.81
2023-03-26T17:31:26.306Z,98392.19
2023-03-26T17:35:41.729Z,98396.25
2023-03-26T17:40:35.369Z,98401.25
2023-03-26T17:44:42.436Z,98411.56
2023-03-26T17:48:51.250Z,98410.13
2023-03-26T17:52:57.980Z,98412.69
2023-03-26T17:57:04.070Z,98421.41
2023-03-26T18:01:18.676Z,98425.25
2023-03-26T18:05:25.514Z,98430.47
2023-03-26T18:09:41.883Z,98434.66
2023-03-26T18:14:31.041Z,98445.56
2023-03-26T18:18:37.829Z,98444.59
2023-03-26T18:22:41.904Z,98455.19
2023-03-26T18:26:47.750Z,98452.88
2023-03-26T18:30:51.032Z,98454.84
2023-03-26T18:34:58.176Z,98462.84
2023-03-26T18:39:04.800Z,98468.59
2023-03-26T18:43:19.606Z,98469.41
2023-03-26T18:47:32.269Z,98475.00
2023-03-26T18:51:43.158Z,98480.78
2023-03-26T18:55:51.972Z,98481.25
2023-03-26T18:59:56.488Z,98479.81
2023-03-26T19:04:02.074Z,98484.84
2023-03-26T19:08:06.625Z,98482.50
2023-03-26T19:12:18.638Z,98497.00
2023-03-26T19:16:25.027Z,98502.56
2023-03-26T19:20:30.004Z,98497.38
2023-03-26T19:24:32.834Z,98515.16
2023-03-26T19:28:40.326Z,98508.97
2023-03-26T19:32:53.592Z,98519.38
2023-03-26T19:37:00.832Z,98517.94
2023-03-26T19:41:03.388Z,98521.47
2023-03-26T19:45:16.672Z,98532.38
2023-03-26T19:49:28.935Z,98542.31
2023-03-26T19:53:33.132Z,98537.63
2023-03-26T19:57:36.300Z,98541.72
2023-03-26T20:01:40.238Z,98532.63
2023-03-26T20:05:43.300Z,98556.41
2023-03-26T20:09:46.232Z,98565.84
2023-03-26T20:13:49.505Z,98550.63
2023-03-26T20:17:54.507Z,98560.72
2023-03-26T20:21:57.178Z,98568.13
2023-03-26T20:25:59.749Z,98578.66
2023-03-26T20:30:02.308Z,98582.53
2023-03-26T20:34:07.520Z,98602.28
2023-03-26T20:38:10.323Z,98610.75
2023-03-26T20:42:15.798Z,98604.97
2023-03-26T20:46:20.267Z,98622.88
2023-03-26T20:50:24.573Z,98605.56
2023-03-26T20:54:29.571Z,98628.34
2023-03-26T20:58:32.519Z,98616.44
